createdAt,value
2022-11-15T00:00:29.420Z,1.84
2022-11-15T00:03:22.662Z,1.85
2022-11-15T00:06:09.988Z,1.89
2022-11-15T00:09:00.166Z,1.94
2022-11-15T00:11:47.188Z,1.97
2022-11-15T00:14:34.168Z,2.00
2022-11-15T00:17:20.988Z,2.03
2022-11-15T00:20:08.865Z,2.05
2022-11-15T00:22:55.865Z,2.07
2022-11-15T00:25:42.534Z,2.10
2022-11-15T00:28:29.507Z,2.12
2022-11-15T00:31:16.559Z,2.14
2022-11-15T00:34:02.982Z,2.14
2022-11-15T00:36:49.751Z,2.15
2022-11-15T00:39:36.587Z,2.15
2022-11-15T00:42:23.248Z,2.15
2022-11-15T00:45:10.759Z,2.15
2022-11-15T00:47:58.172Z,2.18
2022-11-15T00:50:44.638Z,2.18
2022-11-15T00:53:31.413Z,2.16
2022-11-15T00:56:18.461Z,2.14
2022-11-15T00:59:05.578Z,2.12
2022-11-15T01:01:53.060Z,2.12
2022-11-15T01:04:39.510Z,2.12
2022-11-15T01:07:26.492Z,2.14
2022-11-15T01:10:13.311Z,2.15
2022-11-15T01:13:00.249Z,2.15
2022-11-15T01:15:47.962Z,2.16
2022-11-15T01:18:34.620Z,2.14
2022-11-15T01:21:22.124Z,2.14
2022-11-15T01:24:13.049Z,2.16
2022-11-15T01:26:59.798Z,2.22
2022-11-15T01:29:46.571Z,2.26
2022-11-15T01:32:33.726Z,2.29
2022-11-15T01:35:21.931Z,2.32
2022-11-15T01:38:08.714Z,2.36
2022-11-15T01:40:56.044Z,2.40
2022-11-15T01:43:43.062Z,2.43
2022-11-15T01:46:36.273Z,2.47
2022-11-15T01:49:25.338Z,2.50
2022-11-15T01:52:16.277Z,2.57
2022-11-15T01:55:20.122Z,2.61
2022-11-15T01:58:08.284Z,2.64
2022-11-15T02:00:55.293Z,2.65
2022-11-15T02:04:05.463Z,2.65
2022-11-15T02:06:52.767Z,2.66
2022-11-15T02:09:40.492Z,2.67
2022-11-15T02:12:27.470Z,2.68
2022-11-15T02:15:14.435Z,2.69
2022-11-15T02:18:30.891Z,2.69
2022-11-15T02:21:17.622Z,2.68
2022-11-15T02:24:26.028Z,2.67
2022-11-15T02:27:18.960Z,2.65
2022-11-15T02:30:16.529Z,2.65
2022-11-15T02:33:24.762Z,2.66
2022-11-15T02:36:34.145Z,2.69
2022-11-15T02:39:46.499Z,2.72
2022-11-15T02:43:03.170Z,2.76
2022-11-15T02:46:03.255Z,2.79
2022-11-15T02:48:52.084Z,2.81
2022-11-15T02:51:40.939Z,2.83
2022-11-15T02:54:31.888Z,2.86
2022-11-15T02:57:22.847Z,2.87
2022-11-15T03:00:13.748Z,2.88
2022-11-15T03:03:30.044Z,2.89
2022-11-15T03:06:54.100Z,2.88
2022-11-15T03:09:43.271Z,2.88
2022-11-15T03:12:38.940Z,2.86
2022-11-15T03:15:32.996Z,2.86
2022-11-15T03:18:33.209Z,2.86
2022-11-15T03:21:22.283Z,2.85
2022-11-15T03:24:10.203Z,2.84
2022-11-15T03:27:00.573Z,2.84
2022-11-15T03:29:54.085Z,2.83
2022-11-15T03:32:51.485Z,2.82
2022-11-15T03:35:41.700Z,2.82
2022-11-15T03:38:33.110Z,2.80
2022-11-15T03:41:52.057Z,2.79
2022-11-15T03:44:45.942Z,2.77
2022-11-15T03:47:39.811Z,2.75
2022-11-15T03:50:27.793Z,2.73
2022-11-15T03:53:15.288Z,2.72
2022-11-15T03:56:02.215Z,2.70
2022-11-15T03:58:49.255Z,2.67
2022-11-15T04:01:35.837Z,2.63
2022-11-15T04:04:22.541Z,2.60
2022-11-15T04:07:09.594Z,2.57
2022-11-15T04:10:06.708Z,2.54
2022-11-15T04:12:53.997Z,2.51
2022-11-15T04:15:40.713Z,2.50
2022-11-15T04:18:28.082Z,2.48
2022-11-15T04:21:33.787Z,2.47
2022-11-15T04:24:20.437Z,2.46
2022-11-15T04:27:07.224Z,2.45
2022-11-15T04:29:54.178Z,2.45
2022-11-15T04:32:40.998Z,2.44
2022-11-15T04:35:28.453Z,2.43
2022-11-15T04:38:15.000Z,2.41
2022-11-15T04:41:02.878Z,2.41
2022-11-15T04:43:49.429Z,2.39
2022-11-15T04:46:36.265Z,2.40
2022-11-15T04:49:22.976Z,2.39
2022-11-15T04:52:09.866Z,2.39
2022-11-15T04:54:56.666Z,2.39
2022-11-15T04:57:43.479Z,2.39
2022-11-15T05:00:31.702Z,2.40
2022-11-15T05:03:36.962Z,2.41
2022-11-15T05:06:23.738Z,2.42
2022-11-15T05:09:10.595Z,2.42
2022-11-15T05:11:57.689Z,2.42
2022-11-15T05:14:44.419Z,2.41
2022-11-15T05:17:31.236Z,2.41
2022-11-15T05:20:18.374Z,2.41
2022-11-15T05:23:05.569Z,2.43
2022-11-15T05:25:52.271Z,2.44
2022-11-15T05:28:39.495Z,2.46
2022-11-15T05:31:27.564Z,2.48
2022-11-15T05:34:14.211Z,2.52
2022-11-15T05:37:01.449Z,2.54
2022-11-15T05:39:48.070Z,2.57
2022-11-15T05:42:34.922Z,2.58
2022-11-15T05:45:26.679Z,2.60
2022-11-15T05:48:15.692Z,2.61
2022-11-15T05:51:05.064Z,2.63
2022-11-15T05:53:53.917Z,2.66
2022-11-15T05:56:40.682Z,2.65
2022-11-15T05:59:31.326Z,2.67
2022-11-15T06:02:18.314Z,2.71
2022-11-15T06:05:05.575Z,2.75
2022-11-15T06:07:52.179Z,2.78
2022-11-15T06:10:38.787Z,2.81
2022-11-15T06:13:25.452Z,2.84
2022-11-15T06:16:12.631Z,2.87
2022-11-15T06:18:59.648Z,2.90
2022-11-15T06:21:46.566Z,2.94
2022-11-15T06:24:33.660Z,2.97
2022-11-15T06:27:20.341Z,3.01
2022-11-15T06:30:07.940Z,3.06
2022-11-15T06:33:06.604Z,3.11
2022-11-15T06:35:53.492Z,3.18
2022-11-15T06:38:40.793Z,3.23
2022-11-15T06:41:27.449Z,3.28
2022-11-15T06:44:14.328Z,3.32
2022-11-15T06:47:01.389Z,3.37
2022-11-15T06:49:47.884Z,3.43
2022-11-15T06:52:35.284Z,3.49
2022-11-15T06:55:21.999Z,3.55
2022-11-15T06:58:08.682Z,3.62
2022-11-15T07:01:00.515Z,3.69
2022-11-15T07:03:47.717Z,3.78
2022-11-15T07:06:34.787Z,3.87
2022-11-15T07:09:21.358Z,3.97
2022-11-15T07:12:08.349Z,4.05
2022-11-15T07:14:55.218Z,4.15
2022-11-15T07:17:42.322Z,4.23
2022-11-15T07:20:29.320Z,4.28
2022-11-15T07:23:16.208Z,4.35
2022-11-15T07:26:02.838Z,4.40
2022-11-15T07:28:49.665Z,4.49
2022-11-15T07:31:36.565Z,4.55
2022-11-15T07:34:23.425Z,4.63
2022-11-15T07:37:10.266Z,4.72
2022-11-15T07:39:57.367Z,4.81
2022-11-15T07:42:57.318Z,4.90
2022-11-15T07:45:46.191Z,4.97
2022-11-15T07:48:43.260Z,5.04
2022-11-15T07:51:31.454Z,5.11
2022-11-15T07:54:18.396Z,5.17
2022-11-15T07:57:07.731Z,5.22
2022-11-15T07:59:55.043Z,5.28
2022-11-15T08:02:42.370Z,5.34
2022-11-15T08:05:29.238Z,5.42
2022-11-15T08:08:17.039Z,5.51
2022-11-15T08:11:03.850Z,5.61
2022-11-15T08:13:50.827Z,5.72
2022-11-15T08:16:37.844Z,5.83
2022-11-15T08:19:25.010Z,5.90
2022-11-15T08:22:11.999Z,5.95
2022-11-15T08:24:58.786Z,6.00
2022-11-15T08:27:46.054Z,6.06
2022-11-15T08:30:37.625Z,6.12
2022-11-15T08:33:25.668Z,6.19
2022-11-15T08:36:17.407Z,6.26
2022-11-15T08:39:04.340Z,6.34
2022-11-15T08:41:51.110Z,6.42
2022-11-15T08:44:38.425Z,6.52
2022-11-15T08:47:25.437Z,6.59
2022-11-15T08:50:13.303Z,6.65
2022-11-15T08:53:06.751Z,6.73
2022-11-15T08:55:53.746Z,6.82
2022-11-15T08:58:41.194Z,6.89
2022-11-15T09:01:28.213Z,6.98
2022-11-15T09:04:14.957Z,7.05
2022-11-15T09:07:01.868Z,7.13
2022-11-15T09:09:49.044Z,7.21
2022-11-15T09:12:36.293Z,7.30
2022-11-15T09:15:22.840Z,7.37
2022-11-15T09:18:09.824Z,7.45
2022-11-15T09:20:58.748Z,7.52
2022-11-15T09:23:45.755Z,7.61
2022-11-15T09:26:32.521Z,7.67
2022-11-15T09:29:19.811Z,7.74
2022-11-15T09:32:06.637Z,7.80
2022-11-15T09:34:53.557Z,7.86
2022-11-15T09:37:40.059Z,7.91
2022-11-15T09:40:27.474Z,7.96
2022-11-15T09:43:32.844Z,8.01
2022-11-15T09:46:34.781Z,8.06
2022-11-15T09:49:27.115Z,8.11
2022-11-15T09:52:23.748Z,8.17
2022-11-15T09:54:55.467Z,8.23
2022-11-15T09:57:54.666Z,8.29
2022-11-15T10:00:46.533Z,8.37
2022-11-15T10:03:18.463Z,8.45
2022-11-15T10:05:52.616Z,8.50
2022-11-15T10:08:27.763Z,8.55
2022-11-15T10:14:00.850Z,8.66
2022-11-15T10:16:28.955Z,8.72
2022-11-15T10:19:35.072Z,8.92
2022-11-15T10:22:18.692Z,9.14
2022-11-15T10:24:47.500Z,9.18
2022-11-15T10:27:20.001Z,9.18
2022-11-15T10:29:50.655Z,9.19
2022-11-15T10:32:21.603Z,9.20
2022-11-15T10:34:51.032Z,9.20
2022-11-15T10:37:37.452Z,9.21
2022-11-15T10:40:07.606Z,9.22
2022-11-15T10:42:36.405Z,9.21
2022-11-15T10:45:25.391Z,9.22
2022-11-15T10:47:54.011Z,9.23
2022-11-15T10:50:31.780Z,9.24
2022-11-15T10:53:03.820Z,9.26
2022-11-15T10:55:34.560Z,9.28
2022-11-15T10:58:07.384Z,9.31
2022-11-15T11:00:40.324Z,9.34
2022-11-15T11:03:34.503Z,9.37
2022-11-15T11:06:17.757Z,9.44
2022-11-15T11:09:36.646Z,9.49
2022-11-15T11:12:07.278Z,9.55
2022-11-15T11:14:38.268Z,9.57
2022-11-15T11:17:32.610Z,9.62
2022-11-15T11:20:17.191Z,9.67
2022-11-15T11:23:03.857Z,9.71
2022-11-15T11:25:50.460Z,9.74
2022-11-15T11:28:36.665Z,9.76
2022-11-15T11:31:07.391Z,9.79
2022-11-15T11:34:03.550Z,9.82
2022-11-15T11:36:59.186Z,9.83
2022-11-15T11:39:49.900Z,9.86
2022-11-15T11:42:45.893Z,9.88
2022-11-15T11:45:47.163Z,9.92
2022-11-15T11:48:42.994Z,9.96
2022-11-15T11:51:24.480Z,9.98
2022-11-15T11:54:14.907Z,10.00
2022-11-15T11:56:46.435Z,10.03
2022-11-15T11:59:40.425Z,10.04
2022-11-15T12:02:30.118Z,10.04
2022-11-15T12:05:23.885Z,10.04
2022-11-15T12:08:03.043Z,10.02
2022-11-15T12:10:34.684Z,10.02
2022-11-15T12:13:17.824Z,10.01
2022-11-15T12:15:57.918Z,10.01
2022-11-15T12:18:25.995Z,10.01
2022-11-15T12:21:20.797Z,10.01
2022-11-15T12:23:59.277Z,10.01
2022-11-15T12:26:35.670Z,10.01
2022-11-15T12:29:17.845Z,10.00
2022-11-15T12:31:53.227Z,9.99
2022-11-15T12:34:21.363Z,9.96
2022-11-15T12:36:51.765Z,9.95
2022-11-15T12:39:20.727Z,9.92
2022-11-15T12:41:57.641Z,9.91
2022-11-15T12:44:31.793Z,9.91
2022-11-15T12:47:01.972Z,9.89
2022-11-15T12:49:30.058Z,9.86
2022-11-15T12:51:58.050Z,9.82
2022-11-15T12:54:26.108Z,9.77
2022-11-15T12:57:09.518Z,9.71
2022-11-15T12:59:59.761Z,9.65
2022-11-15T13:02:44.611Z,9.59
2022-11-15T13:05:19.447Z,9.53
2022-11-15T13:07:50.831Z,9.49
2022-11-15T13:10:28.620Z,9.46
2022-11-15T13:12:59.703Z,9.41
2022-11-15T13:15:30.860Z,9.37
2022-11-15T13:17:59.346Z,9.33
2022-11-15T13:20:32.831Z,9.29
2022-11-15T13:23:05.990Z,9.25
2022-11-15T13:25:37.230Z,9.21
2022-11-15T13:28:17.586Z,9.18
2022-11-15T13:30:48.712Z,9.12
2022-11-15T13:33:20.316Z,9.08
2022-11-15T13:36:00.900Z,9.03
2022-11-15T13:38:32.748Z,8.98
2022-11-15T13:41:15.817Z,8.94
2022-11-15T13:43:44.226Z,8.89
2022-11-15T13:46:16.826Z,8.85
2022-11-15T13:48:47.295Z,8.81
2022-11-15T13:51:25.912Z,8.78
2022-11-15T13:54:03.743Z,8.74
2022-11-15T13:56:35.097Z,8.71
2022-11-15T13:59:25.592Z,8.68
2022-11-15T14:01:55.616Z,8.65
2022-11-15T14:04:26.477Z,8.63
2022-11-15T14:06:58.648Z,8.62
2022-11-15T14:09:37.168Z,8.60
2022-11-15T14:12:27.414Z,8.58
2022-11-15T14:14:55.918Z,8.58
2022-11-15T14:17:29.816Z,8.58
2022-11-15T14:19:58.784Z,8.55
2022-11-15T14:22:29.347Z,8.53
2022-11-15T14:25:22.587Z,8.51
2022-11-15T14:28:16.412Z,8.49
2022-11-15T14:30:48.341Z,8.46
2022-11-15T14:33:21.420Z,8.44
2022-11-15T14:35:49.859Z,8.41
2022-11-15T14:38:18.386Z,8.39
2022-11-15T14:40:46.526Z,8.38
2022-11-15T14:43:14.971Z,8.36
2022-11-15T14:45:43.713Z,8.35
2022-11-15T14:48:11.833Z,8.34
2022-11-15T14:50:40.191Z,8.31
2022-11-15T14:53:15.987Z,8.29
2022-11-15T14:55:44.744Z,8.27
2022-11-15T14:58:12.834Z,8.25
2022-11-15T15:00:42.274Z,8.24
2022-11-15T15:03:11.324Z,8.23
2022-11-15T15:05:44.166Z,8.23
2022-11-15T15:08:13.065Z,8.23
2022-11-15T15:10:46.458Z,8.21
2022-11-15T15:13:22.152Z,8.21
2022-11-15T15:15:52.563Z,8.20
2022-11-15T15:18:21.471Z,8.19
2022-11-15T15:20:58.411Z,8.19
2022-11-15T15:23:30.366Z,8.18
2022-11-15T15:25:58.612Z,8.17
2022-11-15T15:28:31.395Z,8.17
2022-11-15T15:31:03.054Z,8.17
2022-11-15T15:33:32.226Z,8.16
2022-11-15T15:36:00.381Z,8.15
2022-11-15T15:38:28.621Z,8.14
2022-11-15T15:40:56.790Z,8.13
2022-11-15T15:43:24.842Z,8.12
2022-11-15T15:45:53.075Z,8.10
2022-11-15T15:48:21.237Z,8.09
2022-11-15T15:50:50.335Z,8.08
2022-11-15T15:53:18.446Z,8.06
2022-11-15T15:55:46.690Z,8.05
2022-11-15T15:58:15.058Z,8.03
2022-11-15T16:00:43.193Z,8.00
2022-11-15T16:03:11.482Z,7.99
2022-11-15T16:05:39.513Z,7.98
2022-11-15T16:08:42.540Z,7.96
2022-11-15T16:11:16.047Z,7.95
2022-11-15T16:13:44.222Z,7.95
2022-11-15T16:16:14.755Z,7.94
2022-11-15T16:18:43.475Z,7.93
2022-11-15T16:21:11.496Z,7.92
2022-11-15T16:23:40.347Z,7.91
2022-11-15T16:26:27.511Z,7.91
2022-11-15T16:28:55.741Z,7.89
2022-11-15T16:31:23.731Z,7.87
2022-11-15T16:33:51.889Z,7.85
2022-11-15T16:36:30.753Z,7.84
2022-11-15T16:38:59.935Z,7.84
2022-11-15T16:41:27.978Z,7.83
2022-11-15T16:43:56.260Z,7.83
2022-11-15T16:46:26.351Z,7.81
2022-11-15T16:48:55.094Z,7.81
2022-11-15T16:51:23.800Z,7.79
2022-11-15T16:53:52.410Z,7.79
2022-11-15T16:56:30.492Z,7.77
2022-11-15T16:59:00.824Z,7.76
2022-11-15T17:01:31.476Z,7.76
2022-11-15T17:04:00.172Z,7.74
2022-11-15T17:06:28.624Z,7.74
2022-11-15T17:08:57.629Z,7.72
2022-11-15T17:11:25.796Z,7.69
2022-11-15T17:13:58.917Z,7.67
2022-11-15T17:16:27.163Z,7.66
2022-11-15T17:18:55.359Z,7.64
2022-11-15T17:21:23.699Z,7.63
2022-11-15T17:23:52.136Z,7.62
2022-11-15T17:26:30.241Z,7.61
2022-11-15T17:29:01.529Z,7.60
2022-11-15T17:31:31.506Z,7.59
2022-11-15T17:34:01.643Z,7.58
2022-11-15T17:36:29.916Z,7.58
2022-11-15T17:38:59.743Z,7.58
2022-11-15T17:41:29.218Z,7.58
2022-11-15T17:44:00.033Z,7.58
2022-11-15T17:46:29.154Z,7.57
2022-11-15T17:48:58.111Z,7.56
2022-11-15T17:51:26.754Z,7.55
2022-11-15T17:53:56.253Z,7.54
2022-11-15T17:56:27.355Z,7.54
2022-11-15T17:58:58.453Z,7.53
2022-11-15T18:01:28.897Z,7.53
2022-11-15T18:04:00.918Z,7.53
2022-11-15T18:06:31.880Z,7.53
2022-11-15T18:09:00.602Z,7.53
2022-11-15T18:11:40.223Z,7.53
2022-11-15T18:14:12.848Z,7.52
2022-11-15T18:16:41.117Z,7.51
2022-11-15T18:19:13.364Z,7.51
2022-11-15T18:21:59.311Z,7.50
2022-11-15T18:24:35.871Z,7.49
2022-11-15T18:27:05.936Z,7.49
2022-11-15T18:29:37.718Z,7.48
2022-11-15T18:32:11.719Z,7.46
2022-11-15T18:34:42.235Z,7.44
2022-11-15T18:37:10.525Z,7.44
2022-11-15T18:39:38.844Z,7.44
2022-11-15T18:42:07.540Z,7.44
2022-11-15T18:44:36.614Z,7.44
2022-11-15T18:47:05.123Z,7.44
2022-11-15T18:49:33.279Z,7.44
2022-11-15T18:52:01.571Z,7.43
2022-11-15T18:54:31.366Z,7.43
2022-11-15T18:57:00.665Z,7.43
2022-11-15T18:59:29.567Z,7.41
2022-11-15T19:01:58.156Z,7.40
2022-11-15T19:04:26.452Z,7.39
2022-11-15T19:06:54.642Z,7.38
2022-11-15T19:09:27.405Z,7.37
2022-11-15T19:11:55.889Z,7.36
2022-11-15T19:14:26.302Z,7.35
2022-11-15T19:16:55.203Z,7.35
2022-11-15T19:19:25.956Z,7.34
2022-11-15T19:21:54.714Z,7.34
2022-11-15T19:24:22.837Z,7.33
2022-11-15T19:26:51.034Z,7.33
2022-11-15T19:29:19.253Z,7.33
2022-11-15T19:31:48.868Z,7.31
2022-11-15T19:34:18.058Z,7.33
2022-11-15T19:36:46.822Z,7.32
2022-11-15T19:39:18.206Z,7.30
2022-11-15T19:41:47.147Z,7.29
2022-11-15T19:44:15.885Z,7.29
2022-11-15T19:46:45.428Z,7.27
2022-11-15T19:49:13.802Z,7.24
2022-11-15T19:51:42.885Z,7.23
2022-11-15T19:54:11.214Z,7.22
2022-11-15T19:56:40.254Z,7.22
2022-11-15T19:59:09.197Z,7.21
2022-11-15T20:01:39.740Z,7.20
2022-11-15T20:04:10.260Z,7.20
2022-11-15T20:06:43.207Z,7.20
2022-11-15T20:09:13.989Z,7.20
2022-11-15T20:11:42.591Z,7.21
2022-11-15T20:14:13.096Z,7.22
2022-11-15T20:16:41.445Z,7.23
2022-11-15T20:19:09.734Z,7.23
2022-11-15T20:21:38.356Z,7.23
2022-11-15T20:24:09.117Z,7.23
2022-11-15T20:26:58.724Z,7.25
2022-11-15T20:29:26.874Z,7.27
2022-11-15T20:31:54.924Z,7.28
2022-11-15T20:34:23.080Z,7.29
2022-11-15T20:36:51.104Z,7.31
2022-11-15T20:39:19.119Z,7.31
2022-11-15T20:41:47.239Z,7.31
2022-11-15T20:44:15.350Z,7.32
2022-11-15T20:46:43.471Z,7.32
2022-11-15T20:49:11.624Z,7.33
2022-11-15T20:51:39.674Z,7.34
2022-11-15T20:54:09.097Z,7.35
2022-11-15T20:56:37.155Z,7.35
2022-11-15T20:59:05.297Z,7.36
2022-11-15T21:01:33.501Z,7.37
2022-11-15T21:04:02.468Z,7.38
2022-11-15T21:06:30.911Z,7.38
2022-11-15T21:09:17.720Z,7.39
2022-11-15T21:12:04.244Z,7.39
2022-11-15T21:14:32.226Z,7.39
2022-11-15T21:17:01.123Z,7.38
2022-11-15T21:19:35.502Z,7.38
2022-11-15T21:22:06.540Z,7.39
2022-11-15T21:24:34.618Z,7.39
2022-11-15T21:27:02.711Z,7.39
2022-11-15T21:29:43.230Z,7.39
2022-11-15T21:32:12.202Z,7.39
2022-11-15T21:34:40.241Z,7.38
2022-11-15T21:37:08.808Z,7.37
2022-11-15T21:39:37.750Z,7.38
2022-11-15T21:42:06.087Z,7.37
2022-11-15T21:44:34.690Z,7.36
2022-11-15T21:47:03.651Z,7.35
2022-11-15T21:49:31.714Z,7.34
2022-11-15T21:51:59.726Z,7.33
2022-11-15T21:54:27.961Z,7.32
2022-11-15T21:56:56.049Z,7.31
2022-11-15T21:59:24.191Z,7.30
2022-11-15T22:02:10.977Z,7.28
2022-11-15T22:04:39.272Z,7.25
2022-11-15T22:07:07.478Z,7.23
2022-11-15T22:09:35.652Z,7.21
2022-11-15T22:12:03.881Z,7.20
2022-11-15T22:14:32.016Z,7.19
2022-11-15T22:17:00.155Z,7.17
2022-11-15T22:19:28.728Z,7.16
2022-11-15T22:21:57.049Z,7.15
2022-11-15T22:24:25.355Z,7.15
2022-11-15T22:26:53.597Z,7.14
2022-11-15T22:29:21.728Z,7.13
2022-11-15T22:31:49.978Z,7.10
2022-11-15T22:34:19.355Z,7.12
2022-11-15T22:37:18.289Z,7.11
2022-11-15T22:39:35.911Z,7.11
2022-11-15T22:42:04.167Z,7.11
2022-11-15T22:44:32.295Z,7.10
2022-11-15T22:47:01.040Z,7.09
2022-11-15T22:49:29.189Z,7.07
2022-11-15T22:51:57.263Z,7.06
2022-11-15T22:54:25.507Z,7.05
2022-11-15T22:56:53.642Z,7.03
2022-11-15T22:59:21.884Z,7.01
2022-11-15T23:01:51.226Z,7.00
2022-11-15T23:04:19.685Z,7.01
2022-11-15T23:06:48.231Z,6.99
2022-11-15T23:09:17.209Z,6.99
2022-11-15T23:12:04.344Z,7.00
2022-11-15T23:14:32.525Z,6.98
2022-11-15T23:17:00.725Z,6.97
2022-11-15T23:19:28.954Z,6.96
2022-11-15T23:22:15.495Z,6.95
2022-11-15T23:24:43.475Z,6.92
2022-11-15T23:27:15.434Z,6.90
2022-11-15T23:30:02.580Z,6.90
2022-11-15T23:32:50.065Z,6.89
2022-11-15T23:35:18.257Z,6.88
2022-11-15T23:37:46.397Z,6.88
2022-11-15T23:40:14.584Z,6.87
2022-11-15T23:42:42.830Z,6.87
2022-11-15T23:45:11.156Z,6.86
2022-11-15T23:47:39.446Z,6.86
2022-11-15T23:50:08.203Z,6.87
2022-11-15T23:52:36.349Z,6.86
2022-11-15T23:55:05.077Z,6.87
2022-11-15T23:57:33.217Z,6.87
